createdAt,value
2022-10-06T00:00:32.273Z,20.22
2022-10-06T00:01:34.643Z,20.21
2022-10-06T00:02:37.325Z,20.21
2022-10-06T00:03:40.022Z,20.21
2022-10-06T00:04:42.181Z,20.20
2022-10-06T00:05:44.260Z,20.20
2022-10-06T00:06:47.152Z,20.20
2022-10-06T00:07:50.204Z,20.21
2022-10-06T00:08:52.848Z,20.20
2022-10-06T00:09:54.995Z,20.21
2022-10-06T00:10:57.468Z,20.22
2022-10-06T00:11:59.583Z,20.21
2022-10-06T00:13:02.613Z,20.21
2022-10-06T00:14:05.401Z,20.21
2022-10-06T00:15:10.140Z,20.20
2022-10-06T00:16:16.322Z,20.20
2022-10-06T00:17:18.590Z,20.22
2022-10-06T00:18:20.833Z,20.21
2022-10-06T00:19:23.061Z,20.21
2022-10-06T00:20:25.795Z,20.21
2022-10-06T00:21:28.005Z,20.21
2022-10-06T00:22:38.939Z,20.21
2022-10-06T00:23:42.236Z,20.21
2022-10-06T00:24:45.305Z,20.21
2022-10-06T00:25:47.369Z,20.21
2022-10-06T00:26:50.860Z,20.21
2022-10-06T00:27:53.748Z,20.21
2022-10-06T00:28:56.039Z,20.23
2022-10-06T00:29:58.093Z,20.23
2022-10-06T00:31:01.325Z,20.23
2022-10-06T00:32:03.676Z,20.23
2022-10-06T00:33:05.795Z,20.23
2022-10-06T00:34:07.936Z,20.23
2022-10-06T00:35:10.012Z,20.22
2022-10-06T00:36:12.490Z,20.22
2022-10-06T00:37:15.415Z,20.22
2022-10-06T00:38:17.732Z,20.22
2022-10-06T00:39:21.642Z,20.21
2022-10-06T00:40:25.694Z,20.22
2022-10-06T00:41:28.667Z,20.21
2022-10-06T00:42:32.142Z,20.21
2022-10-06T00:43:49.758Z,20.22
2022-10-06T00:44:53.070Z,20.22
2022-10-06T00:45:56.081Z,20.21
2022-10-06T00:46:58.887Z,20.20
2022-10-06T00:48:04.653Z,20.21
2022-10-06T00:49:16.302Z,20.20
2022-10-06T00:50:18.594Z,20.19
2022-10-06T00:51:20.615Z,20.19
2022-10-06T00:52:25.280Z,20.19
2022-10-06T00:53:27.829Z,20.18
2022-10-06T00:54:30.874Z,20.18
2022-10-06T00:55:33.680Z,20.18
2022-10-06T00:56:39.613Z,20.19
2022-10-06T00:57:41.904Z,20.18
2022-10-06T00:58:45.015Z,20.18
2022-10-06T00:59:48.779Z,20.12
2022-10-06T01:00:52.380Z,20.12
2022-10-06T01:02:23.040Z,20.17
2022-10-06T01:03:27.989Z,20.18
2022-10-06T01:04:32.291Z,20.17
2022-10-06T01:05:42.352Z,20.17
2022-10-06T01:06:47.905Z,20.16
2022-10-06T01:07:50.040Z,20.16
2022-10-06T01:08:52.936Z,20.15
2022-10-06T01:09:56.371Z,20.14
2022-10-06T01:10:58.706Z,20.14
2022-10-06T01:12:03.461Z,20.14
2022-10-06T01:13:06.276Z,20.13
2022-10-06T01:14:08.561Z,20.15
2022-10-06T01:15:11.577Z,20.14
2022-10-06T01:16:18.309Z,20.14
2022-10-06T01:18:45.425Z,20.25
2022-10-06T01:19:53.191Z,20.15
2022-10-06T01:21:25.171Z,20.14
2022-10-06T01:22:29.463Z,20.14
2022-10-06T01:23:32.160Z,20.14
2022-10-06T01:24:34.819Z,20.13
2022-10-06T01:25:37.041Z,20.13
2022-10-06T01:26:41.608Z,20.12
2022-10-06T01:27:45.855Z,20.12
2022-10-06T01:28:48.973Z,20.12
2022-10-06T01:29:52.669Z,20.12
2022-10-06T01:30:55.533Z,20.11
2022-10-06T01:31:59.091Z,20.11
2022-10-06T01:33:01.662Z,20.11
2022-10-06T01:34:05.741Z,20.12
2022-10-06T01:35:09.094Z,20.12
2022-10-06T01:36:11.892Z,20.13
2022-10-06T01:37:14.609Z,20.14
2022-10-06T01:38:17.297Z,20.13
2022-10-06T01:39:22.076Z,20.14
2022-10-06T01:40:25.285Z,20.15
2022-10-06T01:41:28.158Z,20.14
2022-10-06T01:42:30.486Z,20.15
2022-10-06T01:43:33.138Z,20.15
2022-10-06T01:44:35.350Z,20.15
2022-10-06T01:45:38.039Z,20.16
2022-10-06T01:46:40.595Z,20.16
2022-10-06T01:47:45.272Z,20.17
2022-10-06T01:48:49.041Z,20.16
2022-10-06T01:49:51.827Z,20.17
2022-10-06T01:50:54.247Z,20.17
2022-10-06T01:51:56.498Z,20.16
2022-10-06T01:52:59.035Z,20.16
2022-10-06T01:54:01.383Z,20.16
2022-10-06T01:55:04.886Z,20.16
2022-10-06T01:56:10.993Z,20.16
2022-10-06T01:57:13.460Z,20.17
2022-10-06T01:58:16.737Z,20.16
2022-10-06T01:59:19.876Z,20.16
2022-10-06T02:00:22.717Z,20.17
2022-10-06T02:01:24.872Z,20.16
2022-10-06T02:02:30.397Z,20.16
2022-10-06T02:03:35.208Z,20.16
2022-10-06T02:04:37.530Z,20.16
2022-10-06T02:05:40.054Z,20.16
2022-10-06T02:06:42.436Z,20.17
2022-10-06T02:07:44.775Z,20.17
2022-10-06T02:08:48.833Z,20.16
2022-10-06T02:09:52.323Z,20.16
2022-10-06T02:10:54.762Z,20.15
2022-10-06T02:11:58.817Z,20.16
2022-10-06T02:13:02.901Z,20.16
2022-10-06T02:14:05.415Z,20.17
2022-10-06T02:15:08.583Z,20.16
2022-10-06T02:16:11.637Z,20.16
2022-10-06T02:17:13.995Z,20.17
2022-10-06T02:18:16.211Z,20.17
2022-10-06T02:19:19.355Z,20.16
2022-10-06T02:20:21.665Z,20.17
2022-10-06T02:21:25.173Z,20.17
2022-10-06T02:22:27.730Z,20.17
2022-10-06T02:23:30.379Z,20.17
2022-10-06T02:24:34.143Z,20.17
2022-10-06T02:25:36.371Z,20.17
2022-10-06T02:26:39.870Z,20.18
2022-10-06T02:27:42.254Z,20.18
2022-10-06T02:28:45.565Z,20.18
2022-10-06T02:29:48.443Z,20.18
2022-10-06T02:30:51.117Z,20.19
2022-10-06T02:31:53.454Z,20.19
2022-10-06T02:32:55.667Z,20.19
2022-10-06T02:33:57.904Z,20.19
2022-10-06T02:35:00.732Z,20.19
2022-10-06T02:36:03.554Z,20.19
2022-10-06T02:37:06.186Z,20.20
2022-10-06T02:38:08.389Z,20.20
2022-10-06T02:39:10.545Z,20.20
2022-10-06T02:40:12.750Z,20.20
2022-10-06T02:41:15.070Z,20.21
2022-10-06T02:42:17.393Z,20.20
2022-10-06T02:43:23.331Z,20.21
2022-10-06T02:44:25.595Z,20.20
2022-10-06T02:45:28.532Z,20.20
2022-10-06T02:46:30.964Z,20.20
2022-10-06T02:48:46.794Z,20.32
2022-10-06T02:49:49.017Z,20.21
2022-10-06T02:50:58.924Z,20.21
2022-10-06T02:52:01.231Z,20.21
2022-10-06T02:53:03.710Z,20.20
2022-10-06T02:54:07.070Z,20.20
2022-10-06T02:55:09.925Z,20.20
2022-10-06T02:57:28.041Z,20.31
2022-10-06T02:58:31.926Z,20.20
2022-10-06T02:59:36.685Z,20.20
2022-10-06T03:00:39.351Z,20.20
2022-10-06T03:01:43.035Z,20.20
2022-10-06T03:02:47.292Z,20.20
2022-10-06T03:03:49.533Z,20.20
2022-10-06T03:04:52.910Z,20.20
2022-10-06T03:06:06.932Z,20.20
2022-10-06T03:07:09.511Z,20.20
2022-10-06T03:08:12.859Z,20.21
2022-10-06T03:09:16.531Z,20.21
2022-10-06T03:10:19.365Z,20.19
2022-10-06T03:11:27.392Z,20.20
2022-10-06T03:12:29.576Z,20.19
2022-10-06T03:13:33.963Z,20.19
2022-10-06T03:14:39.076Z,20.18
2022-10-06T03:15:42.666Z,20.19
2022-10-06T03:16:45.205Z,20.18
2022-10-06T03:17:52.365Z,20.19
2022-10-06T03:18:55.082Z,20.18
2022-10-06T03:19:57.146Z,20.18
2022-10-06T03:21:00.678Z,20.17
2022-10-06T03:22:04.356Z,20.17
2022-10-06T03:23:15.153Z,20.16
2022-10-06T03:24:17.858Z,20.17
2022-10-06T03:25:23.444Z,20.17
2022-10-06T03:26:30.947Z,20.17
2022-10-06T03:27:33.596Z,20.17
2022-10-06T03:28:37.843Z,20.16
2022-10-06T03:29:40.370Z,20.17
2022-10-06T03:30:44.035Z,20.17
2022-10-06T03:31:46.482Z,20.17
2022-10-06T03:32:51.797Z,20.16
2022-10-06T03:33:54.728Z,20.16
2022-10-06T03:34:59.327Z,20.18
2022-10-06T03:36:07.686Z,20.17
2022-10-06T03:37:10.436Z,20.19
2022-10-06T03:38:12.826Z,20.19
2022-10-06T03:39:16.009Z,20.19
2022-10-06T03:40:18.643Z,20.19
2022-10-06T03:41:23.425Z,20.18
2022-10-06T03:42:25.821Z,20.18
2022-10-06T03:43:28.579Z,20.19
2022-10-06T03:44:30.946Z,20.18
2022-10-06T03:45:33.733Z,20.19
2022-10-06T03:46:36.788Z,20.19
2022-10-06T03:47:42.282Z,20.19
2022-10-06T03:48:45.000Z,20.18
2022-10-06T03:49:47.307Z,20.18
2022-10-06T03:52:06.946Z,20.29
2022-10-06T03:53:11.301Z,20.19
2022-10-06T03:54:13.706Z,20.18
2022-10-06T03:55:17.540Z,20.18
2022-10-06T03:56:22.980Z,20.19
2022-10-06T03:57:25.420Z,20.18
2022-10-06T03:58:29.359Z,20.20
2022-10-06T03:59:31.709Z,20.19
2022-10-06T04:00:35.128Z,20.19
2022-10-06T04:01:42.640Z,20.19
2022-10-06T04:02:46.539Z,20.19
2022-10-06T04:03:49.653Z,20.19
2022-10-06T04:04:51.964Z,20.19
2022-10-06T04:05:58.039Z,20.19
2022-10-06T04:07:01.006Z,20.19
2022-10-06T04:08:03.259Z,20.19
2022-10-06T04:09:11.301Z,20.20
2022-10-06T04:10:11.983Z,20.18
2022-10-06T04:11:15.860Z,20.17
2022-10-06T04:12:18.048Z,20.17
2022-10-06T04:13:20.938Z,20.17
2022-10-06T04:14:24.754Z,20.18
2022-10-06T04:15:27.119Z,20.18
2022-10-06T04:17:44.580Z,20.28
2022-10-06T04:18:49.259Z,20.18
2022-10-06T04:19:51.971Z,20.17
2022-10-06T04:21:00.628Z,20.18
2022-10-06T04:22:03.761Z,20.18
2022-10-06T04:23:06.810Z,20.18
2022-10-06T04:24:09.601Z,20.17
2022-10-06T04:25:13.248Z,20.18
2022-10-06T04:26:17.731Z,20.18
2022-10-06T04:27:21.784Z,20.18
2022-10-06T04:28:26.185Z,20.19
2022-10-06T04:29:28.751Z,20.18
2022-10-06T04:30:32.670Z,20.19
2022-10-06T04:31:35.647Z,20.18
2022-10-06T04:32:38.763Z,20.19
2022-10-06T04:33:42.125Z,20.19
2022-10-06T04:34:45.553Z,20.19
2022-10-06T04:37:10.107Z,20.28
2022-10-06T04:38:14.881Z,20.19
2022-10-06T04:39:19.439Z,20.18
2022-10-06T04:40:22.420Z,20.18
2022-10-06T04:41:26.442Z,20.18
2022-10-06T04:42:34.751Z,20.18
2022-10-06T04:43:34.634Z,20.18
2022-10-06T04:44:38.057Z,20.18
2022-10-06T04:45:41.407Z,20.18
2022-10-06T04:46:45.014Z,20.18
2022-10-06T04:47:48.407Z,20.19
2022-10-06T04:48:51.289Z,20.18
2022-10-06T04:49:53.848Z,20.19
2022-10-06T04:52:16.151Z,20.28
2022-10-06T04:53:20.461Z,20.18
2022-10-06T04:54:22.847Z,20.17
2022-10-06T04:55:26.955Z,20.17
2022-10-06T04:56:30.056Z,20.17
2022-10-06T04:57:34.056Z,20.17
2022-10-06T04:58:38.675Z,20.17
2022-10-06T04:59:41.205Z,20.17
2022-10-06T05:00:44.442Z,20.17
2022-10-06T05:01:47.694Z,20.16
2022-10-06T05:02:53.214Z,20.17
2022-10-06T05:03:59.036Z,20.17
2022-10-06T05:05:02.605Z,20.17
2022-10-06T05:06:06.619Z,20.17
2022-10-06T05:07:08.892Z,20.17
2022-10-06T05:08:11.039Z,20.15
2022-10-06T05:09:14.068Z,20.16
2022-10-06T05:10:18.331Z,20.16
2022-10-06T05:11:25.615Z,20.16
2022-10-06T05:12:25.119Z,20.16
2022-10-06T05:13:27.755Z,20.16
2022-10-06T05:14:29.999Z,20.16
2022-10-06T05:15:36.265Z,20.16
2022-10-06T05:16:40.144Z,20.17
2022-10-06T05:17:42.969Z,20.17
2022-10-06T05:18:45.849Z,20.18
2022-10-06T05:19:48.298Z,20.18
2022-10-06T05:20:57.565Z,20.18
2022-10-06T05:22:00.825Z,20.18
2022-10-06T05:23:06.107Z,20.19
2022-10-06T05:24:08.515Z,20.18
2022-10-06T05:25:11.096Z,20.19
2022-10-06T05:26:23.587Z,20.19
2022-10-06T05:27:26.966Z,20.18
2022-10-06T05:28:31.252Z,20.19
2022-10-06T05:29:36.021Z,20.17
2022-10-06T05:30:40.757Z,20.17
2022-10-06T05:31:42.944Z,20.16
2022-10-06T05:32:46.860Z,20.16
2022-10-06T05:33:49.333Z,20.16
2022-10-06T05:34:51.738Z,20.16
2022-10-06T05:35:55.976Z,20.16
2022-10-06T05:36:58.449Z,20.15
2022-10-06T05:38:00.627Z,20.16
2022-10-06T05:39:03.106Z,20.16
2022-10-06T05:40:24.535Z,20.16
2022-10-06T05:42:40.570Z,20.25
2022-10-06T05:43:43.878Z,20.15
2022-10-06T05:44:47.153Z,20.14
2022-10-06T05:45:54.410Z,20.13
2022-10-06T05:46:57.743Z,20.13
2022-10-06T18:08:43.889Z,17.45
2022-10-06T18:09:46.014Z,17.38
2022-10-06T18:10:48.252Z,17.44
2022-10-06T18:11:51.380Z,17.53
2022-10-06T18:12:54.303Z,17.63
2022-10-06T18:13:58.771Z,17.74
2022-10-06T18:15:02.430Z,17.86
2022-10-06T18:16:19.472Z,17.97
2022-10-06T18:17:23.550Z,18.08
2022-10-06T18:18:26.660Z,18.22
2022-10-06T18:19:33.009Z,18.33
2022-10-06T18:20:36.009Z,18.43
2022-10-06T18:24:46.392Z,18.77
2022-10-06T18:25:50.175Z,18.84
2022-10-06T18:27:58.427Z,18.99
2022-10-06T18:36:26.253Z,19.38
2022-10-06T18:38:31.747Z,19.44
2022-10-06T18:43:43.821Z,19.61
2022-10-06T18:44:46.147Z,19.66
2022-10-06T18:45:49.664Z,19.71
2022-10-06T18:46:52.640Z,19.74
2022-10-06T18:48:59.778Z,19.80
2022-10-06T18:51:05.131Z,19.85
2022-10-06T18:52:08.483Z,19.89
2022-10-06T18:53:13.997Z,19.89
2022-10-06T18:54:18.161Z,19.92
2022-10-06T18:55:20.336Z,19.94
2022-10-06T18:56:24.360Z,19.95
2022-10-06T18:57:27.835Z,19.99
2022-10-06T18:58:30.382Z,20.00
2022-10-06T18:59:32.362Z,20.02
2022-10-06T19:00:37.127Z,20.04
2022-10-06T19:01:40.929Z,20.06
2022-10-06T19:02:48.427Z,20.07
2022-10-06T19:03:49.871Z,20.09
2022-10-06T19:04:52.998Z,20.10
2022-10-06T19:05:55.302Z,20.11
2022-10-06T19:06:57.505Z,20.13
2022-10-06T19:08:00.745Z,20.15
2022-10-06T19:09:05.007Z,20.15
2022-10-06T19:10:08.261Z,20.16
2022-10-06T19:11:10.667Z,20.18
2022-10-06T19:12:14.927Z,20.19
2022-10-06T19:13:18.446Z,20.19
2022-10-06T19:14:29.066Z,20.20
2022-10-06T19:15:31.735Z,20.21
2022-10-06T19:16:35.542Z,20.22
2022-10-06T19:17:37.843Z,20.23
2022-10-06T19:18:40.656Z,20.24
2022-10-06T19:20:59.079Z,20.35
2022-10-06T19:22:04.954Z,20.25
2022-10-06T19:23:08.274Z,20.25
2022-10-06T19:24:12.953Z,20.25
2022-10-06T19:25:16.779Z,20.26
2022-10-06T19:26:20.720Z,20.28
2022-10-06T19:27:23.736Z,20.27
2022-10-06T19:28:27.630Z,20.28
2022-10-06T19:29:30.356Z,20.29
2022-10-06T19:30:33.378Z,20.30
2022-10-06T19:31:36.518Z,20.29
2022-10-06T19:32:38.815Z,20.29
2022-10-06T19:33:41.377Z,20.29
2022-10-06T19:34:43.874Z,20.30
2022-10-06T19:35:53.475Z,20.31
2022-10-06T19:36:56.360Z,20.31
2022-10-06T19:38:00.486Z,20.32
2022-10-06T19:39:04.302Z,20.31
2022-10-06T19:40:07.436Z,20.32
2022-10-06T19:41:11.717Z,20.32
2022-10-06T19:42:16.372Z,20.33
2022-10-06T19:43:20.403Z,20.33
2022-10-06T19:44:23.669Z,20.33
2022-10-06T19:45:28.161Z,20.34
2022-10-06T19:46:31.065Z,20.35
2022-10-06T19:47:33.498Z,20.35
2022-10-06T19:48:36.139Z,20.35
2022-10-06T19:49:38.679Z,20.35
2022-10-06T19:50:41.196Z,20.34
2022-10-06T19:51:48.605Z,20.34
2022-10-06T19:52:50.957Z,20.36
2022-10-06T19:53:53.123Z,20.36
2022-10-06T19:54:55.896Z,20.36
2022-10-06T19:57:12.796Z,20.48
2022-10-06T19:58:15.655Z,20.37
2022-10-06T19:59:20.391Z,20.36
2022-10-06T20:00:26.385Z,20.37
2022-10-06T20:01:30.088Z,20.38
2022-10-06T20:02:32.625Z,20.38
2022-10-06T20:03:39.430Z,20.39
2022-10-06T20:04:42.582Z,20.39
2022-10-06T20:05:44.782Z,20.39
2022-10-06T20:06:48.411Z,20.40
2022-10-06T20:07:50.689Z,20.40
2022-10-06T20:08:54.632Z,20.39
2022-10-06T20:09:56.830Z,20.39
2022-10-06T20:11:07.538Z,20.39
2022-10-06T20:12:09.681Z,20.39
2022-10-06T20:13:12.372Z,20.39
2022-10-06T20:14:20.777Z,20.39
2022-10-06T20:15:21.450Z,20.37
2022-10-06T20:16:23.586Z,20.37
2022-10-06T20:17:25.880Z,20.36
2022-10-06T20:18:36.149Z,20.36
2022-10-06T20:19:39.417Z,20.36
2022-10-06T20:20:41.663Z,20.37
2022-10-06T20:21:44.282Z,20.37
2022-10-06T20:22:47.264Z,20.36
2022-10-06T20:23:51.830Z,20.38
2022-10-06T20:24:54.114Z,20.38
2022-10-06T20:26:14.813Z,20.38
2022-10-06T20:27:18.328Z,20.38
2022-10-06T20:28:21.127Z,20.38
2022-10-06T20:29:25.324Z,20.36
2022-10-06T20:30:27.768Z,20.36
2022-10-06T20:31:32.565Z,20.35
2022-10-06T20:32:35.389Z,20.35
2022-10-06T20:33:37.547Z,20.36
2022-10-06T20:34:40.420Z,20.36
2022-10-06T20:35:42.439Z,20.37
2022-10-06T20:36:44.973Z,20.37
2022-10-06T20:37:49.326Z,20.38
2022-10-06T20:38:51.598Z,20.38
2022-10-06T20:39:54.893Z,20.38
2022-10-06T20:40:59.246Z,20.37
2022-10-06T20:42:02.657Z,20.38
2022-10-06T20:43:05.617Z,20.38
2022-10-06T20:44:07.862Z,20.39
2022-10-06T20:45:10.226Z,20.40
2022-10-06T20:46:14.300Z,20.39
2022-10-06T20:47:18.809Z,20.39
2022-10-06T20:48:21.384Z,20.40
2022-10-06T20:49:23.918Z,20.39
2022-10-06T20:50:28.318Z,20.39
2022-10-06T20:51:32.317Z,20.39
2022-10-06T20:52:36.649Z,20.39
2022-10-06T20:53:40.010Z,20.39
2022-10-06T20:54:42.700Z,20.39
2022-10-06T20:55:51.519Z,20.37
2022-10-06T20:56:54.422Z,20.38
2022-10-06T20:57:57.755Z,20.38
2022-10-06T20:59:01.529Z,20.40
2022-10-06T21:00:04.646Z,20.40
2022-10-06T21:01:13.131Z,20.39
2022-10-06T21:02:15.345Z,20.40
2022-10-06T21:03:19.190Z,20.40
2022-10-06T21:04:22.961Z,20.40
2022-10-06T21:05:25.079Z,20.40
2022-10-06T21:06:29.445Z,20.40
2022-10-06T21:07:32.309Z,20.40
2022-10-06T21:08:34.489Z,20.40
2022-10-06T21:09:36.684Z,20.41
2022-10-06T21:10:38.824Z,20.40
2022-10-06T21:11:41.069Z,20.41
2022-10-06T21:12:44.475Z,20.40
2022-10-06T21:13:46.873Z,20.41
2022-10-06T21:14:48.939Z,20.41
2022-10-06T21:15:51.098Z,20.41
2022-10-06T21:16:55.374Z,20.42
2022-10-06T21:17:58.758Z,20.42
2022-10-06T21:19:01.791Z,20.41
2022-10-06T21:20:06.346Z,20.41
2022-10-06T21:21:09.407Z,20.42
2022-10-06T21:22:11.581Z,20.42
2022-10-06T21:23:15.830Z,20.41
2022-10-06T21:24:18.848Z,20.41
2022-10-06T21:25:21.153Z,20.41
2022-10-06T21:26:24.496Z,20.40
2022-10-06T21:27:27.266Z,20.39
2022-10-06T21:28:30.708Z,20.38
2022-10-06T21:29:33.305Z,20.38
2022-10-06T21:30:36.049Z,20.38
2022-10-06T21:31:38.545Z,20.38
2022-10-06T21:32:40.840Z,20.39
2022-10-06T21:33:43.617Z,20.39
2022-10-06T21:34:45.783Z,20.34
2022-10-06T21:35:50.502Z,20.34
2022-10-06T21:36:53.710Z,20.40
2022-10-06T21:37:57.294Z,20.42
2022-10-06T21:38:59.895Z,20.42
2022-10-06T21:40:03.532Z,20.42
2022-10-06T21:41:06.528Z,20.42
2022-10-06T21:42:11.074Z,20.41
2022-10-06T21:43:14.328Z,20.41
2022-10-06T21:44:17.417Z,20.41
2022-10-06T21:45:24.179Z,20.42
2022-10-06T21:46:28.747Z,20.40
2022-10-06T21:47:30.120Z,20.40
2022-10-06T21:48:32.285Z,20.40
2022-10-06T21:49:34.953Z,20.39
2022-10-06T21:50:37.781Z,20.39
2022-10-06T21:51:41.965Z,20.39
2022-10-06T21:52:44.527Z,20.39
2022-10-06T21:53:46.654Z,20.39
2022-10-06T21:54:48.956Z,20.39
2022-10-06T21:55:52.923Z,20.39
2022-10-06T21:56:55.099Z,20.39
2022-10-06T21:57:57.366Z,20.39
2022-10-06T21:58:59.635Z,20.39
2022-10-06T22:00:01.911Z,20.39
2022-10-06T22:01:05.296Z,20.39
2022-10-06T22:02:07.757Z,20.40
2022-10-06T22:03:10.097Z,20.39
2022-10-06T22:04:13.122Z,20.39
2022-10-06T22:05:16.013Z,20.40
2022-10-06T22:06:19.774Z,20.40
2022-10-06T22:07:22.301Z,20.40
2022-10-06T22:08:24.855Z,20.40
2022-10-06T22:09:28.674Z,20.41
2022-10-06T22:10:31.381Z,20.40
2022-10-06T22:11:36.031Z,20.41
2022-10-06T22:12:38.565Z,20.41
2022-10-06T22:13:46.354Z,20.41
2022-10-06T22:14:49.448Z,20.40
2022-10-06T22:15:51.787Z,20.39
2022-10-06T22:16:54.157Z,20.40
2022-10-06T22:17:57.140Z,20.39
2022-10-06T22:19:00.947Z,20.39
2022-10-06T22:20:04.189Z,20.40
2022-10-06T22:22:23.969Z,20.51
2022-10-06T22:23:28.507Z,20.40
2022-10-06T22:24:32.769Z,20.39
2022-10-06T22:25:36.523Z,20.38
2022-10-06T22:26:40.310Z,20.40
2022-10-06T22:27:42.879Z,20.39
2022-10-06T22:28:46.617Z,20.37
2022-10-06T22:29:48.804Z,20.39
2022-10-06T22:32:19.610Z,20.51
2022-10-06T22:33:21.773Z,20.41
2022-10-06T22:34:24.161Z,20.40
2022-10-06T22:35:26.424Z,20.40
2022-10-06T22:36:28.676Z,20.41
2022-10-06T22:37:30.832Z,20.41
2022-10-06T22:38:33.596Z,20.41
2022-10-06T22:39:35.909Z,20.42
2022-10-06T22:40:38.773Z,20.42
2022-10-06T22:41:41.449Z,20.43
2022-10-06T22:42:44.104Z,20.43
2022-10-06T22:43:47.120Z,20.42
2022-10-06T22:44:49.694Z,20.42
2022-10-06T22:45:52.879Z,20.43
2022-10-06T22:46:55.968Z,20.39
2022-10-06T22:47:58.213Z,20.39
2022-10-06T22:49:01.544Z,20.44
2022-10-06T22:50:05.308Z,20.45
2022-10-06T22:51:08.241Z,20.44
2022-10-06T22:52:10.534Z,20.43
2022-10-06T22:53:17.312Z,20.43
2022-10-06T22:54:19.568Z,20.42
2022-10-06T22:55:21.889Z,20.43
2022-10-06T22:56:24.405Z,20.43
2022-10-06T22:57:26.603Z,20.43
2022-10-06T22:58:29.878Z,20.44
2022-10-06T22:59:32.164Z,20.44
2022-10-06T23:00:37.385Z,20.44
2022-10-06T23:01:39.936Z,20.44
2022-10-06T23:02:42.665Z,20.44
2022-10-06T23:03:44.915Z,20.44
2022-10-06T23:04:47.267Z,20.43
2022-10-06T23:05:54.001Z,20.43
2022-10-06T23:06:56.265Z,20.43
2022-10-06T23:07:58.912Z,20.43
2022-10-06T23:09:02.822Z,20.43
2022-10-06T23:10:07.090Z,20.42
2022-10-06T23:11:11.526Z,20.42
2022-10-06T23:12:13.760Z,20.41
2022-10-06T23:13:16.011Z,20.41
2022-10-06T23:14:18.356Z,20.40
2022-10-06T23:15:20.742Z,20.39
2022-10-06T23:16:23.156Z,20.33
2022-10-06T23:17:25.635Z,20.33
2022-10-06T23:18:28.078Z,20.39
2022-10-06T23:19:30.211Z,20.38
2022-10-06T23:20:33.492Z,20.39
2022-10-06T23:21:35.572Z,20.39
2022-10-06T23:22:38.994Z,20.40
2022-10-06T23:23:41.172Z,20.40
2022-10-06T23:24:43.339Z,20.41
2022-10-06T23:25:45.804Z,20.41
2022-10-06T23:26:48.021Z,20.41
2022-10-06T23:27:50.086Z,20.41
2022-10-06T23:28:56.505Z,20.41
2022-10-06T23:29:58.591Z,20.41
2022-10-06T23:31:00.848Z,20.41
2022-10-06T23:32:03.772Z,20.42
2022-10-06T23:33:07.469Z,20.41
2022-10-06T23:34:09.688Z,20.40
2022-10-06T23:35:12.834Z,20.39
2022-10-06T23:36:15.776Z,20.40
2022-10-06T23:37:17.941Z,20.40
2022-10-06T23:38:20.219Z,20.40
2022-10-06T23:39:24.348Z,20.40
2022-10-06T23:40:26.628Z,20.41
2022-10-06T23:41:28.896Z,20.41
2022-10-06T23:42:32.024Z,20.40
2022-10-06T23:43:35.051Z,20.40
2022-10-06T23:44:37.302Z,20.40
2022-10-06T23:45:40.065Z,20.39
2022-10-06T23:46:42.619Z,20.39
2022-10-06T23:47:45.064Z,20.39
2022-10-06T23:48:48.588Z,20.40
2022-10-06T23:49:51.222Z,20.39
2022-10-06T23:50:57.805Z,20.39
2022-10-06T23:52:01.157Z,20.40
2022-10-06T23:53:03.249Z,20.38
2022-10-06T23:54:05.393Z,20.38
2022-10-06T23:55:07.786Z,20.39
2022-10-06T23:56:10.340Z,20.39
2022-10-06T23:57:12.625Z,20.38
2022-10-06T23:58:14.744Z,20.38
2022-10-06T23:59:16.903Z,20.38
